.
WxDataArchive / Data Records for 2014-12-14
2014-12-13 December 2014 2014-12-15

Data Records for Sunday, 14 December 2014

Time	Temp	Chill	HIndex	Humid	Dewpt	 Wind 	HiWind	WindDir	Rain 	Barom
-----	----	-----	------	-----	-----	------	------	-------	-----	-----
00:00	45.1	45.1	45.1	83	40.3	0	2	248	0.00	30.082 
00:05	45.2	45.2	45.2	83	40.3	0	3	248	0.00	30.082 
00:10	45.2	45.2	45.2	83	40.3	1	4	248	0.00	30.082 
00:15	45.2	45.2	45.2	83	40.3	0	2	248	0.00	30.080 
00:20	45.4	45.4	45.4	83	40.5	0	3	248	0.00	30.080 
00:25	45.4	45.4	45.4	83	40.5	0	2	248	0.00	30.080 
00:30	45.4	45.4	45.4	82	40.2	0	2	248	0.00	30.077 
00:35	45.4	45.4	45.4	82	40.2	0	2	248	0.00	30.077 
00:40	45.4	45.4	45.4	82	40.2	0	2	248	0.00	30.077 
00:45	45.4	45.4	45.4	82	40.2	1	3	248	0.00	30.071 
00:50	45.4	45.4	45.4	82	40.2	0	2	248	0.00	30.071 
00:55	45.2	45.2	45.2	82	40.0	0	2	248	0.00	30.071 
01:00	45.2	45.2	45.2	82	40.0	0	2	248	0.00	30.066 
01:05	45.2	45.2	45.2	82	40.0	0	2	248	0.00	30.066 
01:10	45.2	45.2	45.2	82	40.0	0	3	248	0.00	30.066 
01:15	45.2	45.2	45.2	82	40.0	0	2	248	0.00	30.064 
01:20	45.1	45.1	45.1	83	40.3	0	2	248	0.00	30.064 
01:25	45.1	45.1	45.1	83	40.3	0	2	248	0.00	30.064 
01:30	45.1	45.1	45.1	83	40.3	0	2	248	0.00	30.064 
01:35	45.1	45.1	45.1	83	40.3	1	2	248	0.00	30.064 
01:40	45.1	45.1	45.1	83	40.3	1	3	248	0.00	30.064 
01:45	45.1	45.1	45.1	83	40.3	0	2	248	0.00	30.065 
01:50	44.9	44.9	44.9	83	40.1	0	2	248	0.00	30.065 
01:55	44.9	44.9	44.9	83	40.1	1	3	248	0.00	30.065 
02:00	44.9	44.9	44.9	83	40.1	0	2	248	0.00	30.066 
02:05	44.9	44.9	44.9	83	40.1	0	3	248	0.00	30.066 
02:10	44.8	44.8	44.8	83	40.0	0	2	248	0.00	30.066 
02:15	44.8	44.8	44.8	83	40.0	0	2	248	0.00	30.067 
02:20	44.6	44.6	44.6	83	39.8	0	2	248	0.00	30.067 
02:25	44.6	44.6	44.6	84	40.1	0	2	248	0.00	30.067 
02:30	44.6	44.6	44.6	84	40.1	0	2	248	0.00	30.070 
02:35	44.6	44.6	44.6	84	40.1	0	2	248	0.00	30.070 
02:40	44.6	44.6	44.6	84	40.1	0	1	248	0.00	30.070 
02:45	44.5	44.5	44.5	84	40.0	0	2	248	0.00	30.071 
02:50	44.5	44.5	44.5	84	40.0	0	1	248	0.00	30.071 
02:55	44.5	44.5	44.5	84	40.0	0	1	248	0.00	30.071 
03:00	44.5	44.5	44.5	84	40.0	0	1	248	0.00	30.073 
03:05	44.5	44.5	44.5	84	40.0	0	1	248	0.00	30.073 
03:10	44.5	44.5	44.5	84	40.0	0	2	248	0.00	30.073 
03:15	44.5	44.5	44.5	84	40.0	0	2	248	0.00	30.074 
03:20	44.5	44.5	44.5	84	40.0	0	1	248	0.00	30.074 
03:25	44.5	44.5	44.5	84	40.0	0	2	248	0.00	30.074 
03:30	44.5	44.5	44.5	84	40.0	0	1	248	0.00	30.076 
03:35	44.5	44.5	44.5	84	40.0	0	1	248	0.00	30.076 
03:40	44.5	44.5	44.5	84	40.0	0	2	248	0.00	30.076 
03:45	44.5	44.5	44.5	84	40.0	0	2	248	0.00	30.076 
03:50	44.5	44.5	44.5	84	40.0	0	1	248	0.00	30.076 
03:55	44.5	44.5	44.5	84	40.0	0	2	248	0.00	30.076 
04:00	44.5	44.5	44.5	84	40.0	1	3	248	0.00	30.076 
04:05	44.6	44.6	44.6	84	40.1	0	2	248	0.00	30.076 
04:10	44.6	44.6	44.6	84	40.1	0	1	248	0.00	30.076 
04:15	44.6	44.6	44.6	84	40.1	0	1	248	0.00	30.075 
04:20	44.6	44.6	44.6	84	40.1	0	2	248	0.00	30.075 
04:25	44.6	44.6	44.6	84	40.1	0	2	248	0.00	30.075 
04:30	44.6	44.6	44.6	84	40.1	0	1	248	0.00	30.077 
04:35	44.6	44.6	44.6	84	40.1	0	1	248	0.00	30.077 
04:40	44.6	44.6	44.6	84	40.1	0	2	248	0.00	30.077 
04:45	44.6	44.6	44.6	84	40.1	0	1	248	0.00	30.078 
04:50	44.6	44.6	44.6	85	40.4	0	3	248	0.00	30.078 
04:55	44.8	44.8	44.8	85	40.6	0	3	248	0.00	30.078 
05:00	44.8	44.8	44.8	84	40.3	0	2	248	0.00	30.081 
05:05	44.8	44.8	44.8	84	40.3	0	1	248	0.00	30.081 
05:10	44.8	44.8	44.8	84	40.3	0	2	248	0.00	30.081 
05:15	44.6	44.6	44.6	84	40.1	0	2	248	0.00	30.086 
05:20	44.6	44.6	44.6	84	40.1	0	2	248	0.00	30.086 
05:25	44.6	44.6	44.6	84	40.1	0	2	248	0.00	30.086 
05:30	44.6	44.6	44.6	85	40.4	1	3	248	0.00	30.092 
05:35	44.6	44.6	44.6	85	40.4	0	1	248	0.00	30.092 
05:40	44.5	44.5	44.5	85	40.3	0	2	248	0.00	30.092 
05:45	44.5	44.5	44.5	85	40.3	0	2	248	0.00	30.095 
05:50	44.5	44.5	44.5	85	40.3	0	1	248	0.00	30.095 
05:55	44.5	44.5	44.5	85	40.3	0	2	248	0.00	30.095 
06:00	44.5	44.5	44.5	85	40.3	0	2	248	0.00	30.097 
06:05	44.5	44.5	44.5	85	40.3	0	2	248	0.00	30.097 
06:10	44.5	44.5	44.5	85	40.3	0	2	248	0.00	30.097 
06:15	44.5	44.5	44.5	85	40.3	0	2	248	0.00	30.098 
06:20	44.5	44.5	44.5	85	40.3	0	2	248	0.00	30.098 
06:25	44.3	44.3	44.3	85	40.1	0	1	248	0.00	30.098 
06:30	44.3	44.3	44.3	85	40.1	0	2	248	0.00	30.106 
06:35	44.3	44.3	44.3	85	40.1	0	2	248	0.00	30.106 
06:40	44.2	44.2	44.2	86	40.3	0	2	248	0.00	30.106 
06:45	44.2	44.2	44.2	86	40.3	0	1	248	0.00	30.108 
06:50	44.2	44.2	44.2	86	40.3	0	2	248	0.00	30.108 
06:55	44.2	44.2	44.2	86	40.3	0	1	248	0.00	30.108 
07:00	44.2	44.2	44.2	86	40.3	0	1	248	0.00	30.111 
07:05	44.2	44.2	44.2	86	40.3	0	1	248	0.00	30.111 
07:10	44.2	44.2	44.2	86	40.3	0	2	248	0.00	30.111 
07:15	44.2	44.2	44.2	86	40.3	0	1	248	0.00	30.110 
07:20	44.2	44.2	44.2	86	40.3	0	2	248	0.00	30.110 
07:25	44.2	44.2	44.2	86	40.3	0	1	248	0.00	30.110 
07:30	44.1	44.1	44.1	86	40.2	0	1	248	0.00	30.110 
07:35	44.1	44.1	44.1	86	40.2	0	1	248	0.00	30.110 
07:40	44.1	44.1	44.1	87	40.5	0	2	248	0.00	30.110 
07:45	44.1	44.1	44.1	87	40.5	0	1	248	0.00	30.111 
07:50	44.1	44.1	44.1	87	40.5	0	1	248	0.00	30.111 
07:55	44.1	44.1	44.1	87	40.5	0	2	248	0.00	30.111 
08:00	44.1	44.1	44.1	87	40.5	0	1	248	0.00	30.113 
08:05	44.1	44.1	44.1	87	40.5	0	1	248	0.00	30.113 
08:10	44.1	44.1	44.1	87	40.5	0	1	248	0.00	30.113 
08:15	44.1	44.1	44.1	87	40.5	0	1	248	0.00	30.112 
08:20	44.1	44.1	44.1	87	40.5	0	1	248	0.00	30.112 
08:25	44.1	44.1	44.1	87	40.5	0	1	248	0.00	30.112 
08:30	44.1	44.1	44.1	87	40.5	0	1	248	0.00	30.113 
08:35	44.1	44.1	44.1	87	40.5	0	1	248	0.00	30.113 
08:40	44.1	44.1	44.1	87	40.5	0	1	248	0.00	30.113 
08:45	44.1	44.1	44.1	87	40.5	0	1	248	0.00	30.113 
08:50	44.2	44.2	44.2	87	40.6	0	1	248	0.00	30.113 
08:55	44.2	44.2	44.2	87	40.6	0	0	---	0.00	30.113 
09:00	44.2	44.2	44.2	87	40.6	0	1	248	0.00	30.113 
09:05	44.2	44.2	44.2	87	40.6	0	1	248	0.00	30.113 
09:10	44.2	44.2	44.2	87	40.6	0	0	---	0.00	30.113 
09:15	44.2	44.2	44.2	87	40.6	0	0	---	0.00	30.115 
09:20	44.2	44.2	44.2	87	40.6	0	0	---	0.00	30.115 
09:25	44.3	44.3	44.3	87	40.7	0	1	248	0.00	30.115 
09:30	44.3	44.3	44.3	87	40.7	0	1	248	0.00	30.119 
09:35	44.5	44.5	44.5	87	40.9	0	1	248	0.00	30.119 
09:40	44.5	44.5	44.5	87	40.9	0	2	248	0.00	30.119 
09:45	44.5	44.5	44.5	87	40.9	0	1	248	0.00	30.124 
09:50	44.6	44.6	44.6	87	41.0	0	1	248	0.00	30.124 
09:55	44.6	44.6	44.6	87	41.0	0	1	248	0.00	30.124 
10:00	44.6	44.6	44.6	87	41.0	0	1	248	0.00	30.125 
10:05	44.8	44.8	44.8	87	41.2	0	2	248	0.00	30.125 
10:10	44.8	44.8	44.8	87	41.2	0	1	248	0.00	30.125 
10:15	44.9	44.9	44.9	87	41.3	0	1	248	0.00	30.124 
10:20	44.9	44.9	44.9	87	41.3	0	1	248	0.00	30.124 
10:25	44.9	44.9	44.9	87	41.3	0	2	248	0.00	30.124 
10:30	45.1	45.1	45.1	86	41.2	0	2	248	0.00	30.124 
10:35	45.1	45.1	45.1	86	41.2	0	2	248	0.00	30.124 
10:40	45.1	45.1	45.1	86	41.2	0	1	248	0.00	30.124 
10:45	45.1	45.1	45.1	86	41.2	0	2	248	0.00	30.119 
10:50	45.2	45.2	45.2	86	41.3	0	1	248	0.00	30.119 
10:55	45.5	45.5	45.5	86	41.6	0	2	248	0.00	30.119 
11:00	45.8	45.8	45.8	86	41.9	0	2	248	0.00	30.115 
11:05	46.1	46.1	46.1	86	42.1	0	1	248	0.00	30.115 
11:10	46.2	46.2	46.2	85	41.9	0	3	248	0.00	30.115 
11:15	46.2	46.2	46.2	85	41.9	0	1	248	0.00	30.118 
11:20	46.4	46.4	46.4	84	41.8	0	1	248	0.00	30.118 
11:25	46.5	46.5	46.5	84	41.9	0	1	248	0.00	30.118 
11:30	46.7	46.7	46.7	84	42.1	0	2	248	0.00	30.111 
11:35	46.8	46.8	46.8	84	42.2	0	4	248	0.00	30.111 
11:40	46.8	46.8	46.8	83	41.9	0	3	248	0.00	30.111 
11:45	46.8	46.8	46.8	83	41.9	1	3	248	0.00	30.108 
11:50	47.0	47.0	47.0	83	42.1	0	1	248	0.00	30.108 
11:55	47.1	47.1	47.1	83	42.2	0	1	248	0.00	30.108 
12:00	47.3	47.3	47.3	83	42.4	0	3	248	0.00	30.106 
12:05	47.4	47.4	47.4	82	42.2	0	1	248	0.00	30.106 
12:10	47.6	47.6	47.6	83	42.7	0	1	248	0.00	30.106 
12:15	47.9	47.9	47.9	82	42.7	0	2	248	0.00	30.096 
12:20	48.0	48.0	48.0	81	42.5	0	3	248	0.00	30.096 
12:25	48.3	48.3	48.3	81	42.7	0	2	248	0.00	30.096 
12:30	48.6	48.6	48.6	81	43.0	0	2	248	0.00	30.090 
12:35	48.8	48.8	48.8	80	42.9	0	2	248	0.00	30.090 
12:40	48.9	48.9	48.9	80	43.0	0	2	248	0.00	30.090 
12:45	49.2	49.2	49.2	80	43.3	0	2	248	0.00	30.089 
12:50	49.4	49.4	49.4	79	43.2	0	2	248	0.00	30.089 
12:55	49.5	49.5	49.5	78	42.9	0	2	248	0.00	30.089 
13:00	49.8	49.8	49.8	79	43.6	0	1	248	0.00	30.086 
13:05	50.1	50.1	50.1	78	43.5	0	2	248	0.00	30.086 
13:10	50.2	50.2	50.2	78	43.6	0	1	248	0.00	30.086 
13:15	50.5	50.5	50.5	78	43.9	0	1	248	0.00	30.075 
13:20	50.8	50.8	50.8	77	43.9	0	2	248	0.00	30.075 
13:25	51.1	51.1	51.1	77	44.1	0	1	248	0.00	30.075 
13:30	51.4	51.4	51.4	77	44.4	0	1	248	0.00	30.072 
13:35	51.9	51.9	51.9	76	44.6	0	1	248	0.00	30.072 
13:40	52.0	52.0	52.0	75	44.3	0	1	248	0.00	30.072 
13:45	52.3	52.3	52.3	75	44.6	0	2	248	0.00	30.066 
13:50	52.5	52.5	52.5	74	44.5	0	2	248	0.00	30.066 
13:55	52.5	52.5	52.5	74	44.5	0	2	248	0.00	30.066 
14:00	52.6	52.6	52.6	74	44.6	0	1	248	0.00	30.062 
14:05	52.8	52.8	52.8	73	44.4	0	2	248	0.00	30.062 
14:10	53.1	53.1	53.1	73	44.7	0	2	248	0.00	30.062 
14:15	53.1	53.1	53.1	72	44.3	0	3	248	0.00	30.058 
14:20	53.2	53.2	53.2	73	44.8	0	2	248	0.00	30.058 
14:25	53.2	53.2	53.2	72	44.4	0	1	248	0.00	30.058 
14:30	53.2	53.2	53.2	73	44.8	0	3	0	0.00	30.055 
14:35	53.1	53.1	53.1	73	44.7	0	1	45	0.00	30.055 
14:40	53.2	53.2	53.2	72	44.4	1	3	248	0.00	30.055 
14:45	53.1	53.1	53.1	73	44.7	0	2	248	0.00	30.057 
14:50	52.9	52.9	52.9	73	44.5	0	3	112	0.00	30.057 
14:55	52.9	52.9	52.9	73	44.5	0	2	202	0.00	30.057 
15:00	52.6	52.6	52.6	73	44.2	0	2	248	0.00	30.059 
15:05	52.8	52.8	52.8	74	44.7	0	2	248	0.00	30.059 
15:10	52.8	52.8	52.8	73	44.4	0	3	248	0.00	30.059 
15:15	52.8	52.8	52.8	73	44.4	0	2	248	0.00	30.059 
15:20	52.9	52.9	52.9	73	44.5	0	3	248	0.00	30.059 
15:25	52.9	52.9	52.9	73	44.5	1	4	248	0.00	30.059 
15:30	52.9	52.9	52.9	73	44.5	0	2	248	0.00	30.057 
15:35	53.1	53.1	53.1	73	44.7	0	2	248	0.00	30.057 
15:40	53.1	53.1	53.1	72	44.3	0	2	248	0.00	30.057 
15:45	52.9	52.9	52.9	73	44.5	0	2	248	0.00	30.057 
15:50	52.8	52.8	52.8	73	44.4	0	2	248	0.00	30.057 
15:55	52.6	52.6	52.6	73	44.2	0	2	248	0.00	30.057 
16:00	52.5	52.5	52.5	73	44.1	0	2	248	0.00	30.059 
16:05	52.3	52.3	52.3	73	43.9	0	1	248	0.00	30.059 
16:10	52.2	52.2	52.2	74	44.2	0	1	248	0.00	30.059 
16:15	52.0	52.0	52.0	75	44.3	0	2	248	0.00	30.059 
16:20	51.9	51.9	51.9	75	44.2	0	2	248	0.00	30.059 
16:25	51.7	51.7	51.7	75	44.0	0	2	248	0.00	30.059 
16:30	51.4	51.4	51.4	76	44.1	0	2	248	0.00	30.062 
16:35	51.1	51.1	51.1	77	44.1	0	1	248	0.00	30.062 
16:40	51.0	51.0	51.0	77	44.0	0	1	248	0.00	30.062 
16:45	50.7	50.7	50.7	77	43.8	0	1	248	0.00	30.065 
16:50	50.5	50.5	50.5	78	43.9	0	1	248	0.00	30.065 
16:55	50.4	50.4	50.4	78	43.8	0	1	248	0.00	30.065 
17:00	50.2	50.2	50.2	79	43.9	0	1	248	0.00	30.061 
17:05	50.2	50.2	50.2	79	43.9	0	1	248	0.00	30.061 
17:10	50.1	50.1	50.1	79	43.8	0	3	248	0.00	30.061 
17:15	49.9	49.9	49.9	79	43.6	0	2	248	0.00	30.059 
17:20	49.8	49.8	49.8	80	43.9	0	2	248	0.00	30.059 
17:25	49.8	49.8	49.8	80	43.9	0	2	248	0.00	30.059 
17:30	49.5	49.5	49.5	80	43.6	0	1	248	0.00	30.061 
17:35	49.4	49.4	49.4	80	43.5	0	1	248	0.00	30.061 
17:40	49.2	49.2	49.2	81	43.6	0	1	248	0.00	30.061 
17:45	49.2	49.2	49.2	81	43.6	0	2	248	0.00	30.066 
17:50	49.4	49.4	49.4	81	43.8	0	2	248	0.00	30.066 
17:55	49.4	49.4	49.4	81	43.8	0	1	248	0.00	30.066 
18:00	49.4	49.4	49.4	81	43.8	1	4	248	0.00	30.065 
18:05	49.4	49.4	49.4	81	43.8	0	2	248	0.00	30.065 
18:10	49.4	49.4	49.4	81	43.8	0	3	248	0.00	30.065 
18:15	49.4	49.4	49.4	80	43.5	0	3	248	0.00	30.062 
18:20	49.2	49.2	49.2	80	43.3	0	1	248	0.00	30.062 
18:25	49.2	49.2	49.2	81	43.6	0	2	248	0.00	30.062 
18:30	49.1	49.1	49.1	81	43.5	0	2	248	0.00	30.064 
18:35	49.1	49.1	49.1	81	43.5	0	1	248	0.00	30.064 
18:40	49.1	49.1	49.1	81	43.5	0	2	248	0.00	30.064 
18:45	48.9	48.9	48.9	81	43.3	1	4	248	0.00	30.066 
18:50	48.9	48.9	48.9	81	43.3	0	1	248	0.00	30.066 
18:55	48.8	48.8	48.8	81	43.2	0	2	248	0.00	30.066 
19:00	48.8	48.8	48.8	81	43.2	0	2	248	0.00	30.066 
19:05	48.6	48.6	48.6	81	43.0	0	4	248	0.00	30.066 
19:10	48.5	48.5	48.5	81	42.9	0	1	248	0.00	30.066 
19:15	48.5	48.5	48.5	81	42.9	0	1	248	0.00	30.067 
19:20	48.3	48.3	48.3	81	42.7	0	2	248	0.00	30.067 
19:25	48.2	48.2	48.2	82	43.0	0	2	248	0.00	30.067 
19:30	48.2	48.2	48.2	82	43.0	0	2	248	0.00	30.068 
19:35	48.0	48.0	48.0	82	42.8	0	1	248	0.00	30.068 
19:40	47.9	47.9	47.9	82	42.7	0	1	248	0.00	30.068 
19:45	47.7	47.7	47.7	83	42.8	0	2	248	0.00	30.068 
19:50	47.6	47.6	47.6	83	42.7	0	2	248	0.00	30.068 
19:55	47.6	47.6	47.6	83	42.7	0	2	248	0.00	30.068 
20:00	47.6	47.6	47.6	83	42.7	0	1	248	0.00	30.075 
20:05	47.4	47.4	47.4	83	42.5	1	3	248	0.00	30.075 
20:10	47.4	47.4	47.4	83	42.5	1	4	248	0.00	30.075 
20:15	47.3	47.3	47.3	83	42.4	1	4	270	0.00	30.075 
20:20	47.1	47.1	47.1	84	42.5	1	4	270	0.00	30.075 
20:25	47.0	47.0	47.0	84	42.4	0	2	270	0.00	30.075 
20:30	46.8	46.8	46.8	84	42.2	0	2	270	0.00	30.077 
20:35	46.7	46.7	46.7	84	42.1	0	2	270	0.00	30.077 
20:40	46.5	46.5	46.5	84	41.9	0	1	270	0.00	30.077 
20:45	46.4	46.4	46.4	85	42.1	1	3	270	0.00	30.077 
20:50	46.4	46.4	46.4	85	42.1	0	2	270	0.00	30.077 
20:55	46.1	46.1	46.1	85	41.8	0	1	270	0.00	30.077 
21:00	46.0	46.0	46.0	85	41.7	0	0	---	0.00	30.077 
21:05	45.8	45.8	45.8	85	41.6	0	1	270	0.00	30.077 
21:10	45.7	45.7	45.7	86	41.8	0	1	270	0.00	30.077 
21:15	45.7	45.7	45.7	86	41.8	0	2	270	0.00	30.077 
21:20	45.7	45.7	45.7	86	41.8	0	1	270	0.00	30.077 
21:25	45.5	45.5	45.5	87	41.9	0	1	270	0.00	30.077 
21:30	45.4	45.4	45.4	87	41.8	0	2	270	0.00	30.078 
21:35	45.4	45.4	45.4	87	41.8	0	1	270	0.00	30.078 
21:40	45.2	45.2	45.2	87	41.6	0	1	270	0.00	30.078 
21:45	45.2	45.2	45.2	87	41.6	0	1	270	0.00	30.082 
21:50	44.9	44.9	44.9	87	41.3	0	1	270	0.00	30.082 
21:55	44.8	44.8	44.8	87	41.2	0	1	270	0.00	30.082 
22:00	44.6	44.6	44.6	88	41.3	0	1	270	0.00	30.084 
22:05	44.6	44.6	44.6	88	41.3	0	0	---	0.00	30.084 
22:10	44.6	44.6	44.6	88	41.3	0	1	270	0.00	30.084 
22:15	44.6	44.6	44.6	88	41.3	0	0	---	0.00	30.086 
22:20	44.5	44.5	44.5	88	41.2	0	1	270	0.00	30.086 
22:25	44.5	44.5	44.5	88	41.2	0	0	---	0.00	30.086 
22:30	44.5	44.5	44.5	88	41.2	0	1	270	0.00	30.086 
22:35	44.3	44.3	44.3	88	41.0	0	1	270	0.00	30.086 
22:40	44.3	44.3	44.3	88	41.0	0	2	270	0.00	30.086 
22:45	44.3	44.3	44.3	88	41.0	0	1	270	0.00	30.083 
22:50	44.3	44.3	44.3	89	41.3	0	0	---	0.00	30.083 
22:55	44.2	44.2	44.2	89	41.2	0	0	---	0.00	30.083 
23:00	44.2	44.2	44.2	89	41.2	0	0	---	0.00	30.080 
23:05	44.2	44.2	44.2	89	41.2	0	1	270	0.00	30.080 
23:10	44.2	44.2	44.2	89	41.2	0	0	---	0.00	30.080 
23:15	44.1	44.1	44.1	89	41.1	0	1	270	0.00	30.078 
23:20	44.1	44.1	44.1	89	41.1	0	1	270	0.00	30.078 
23:25	44.1	44.1	44.1	89	41.1	0	0	---	0.00	30.078 
23:30	43.9	43.9	43.9	89	40.9	0	0	---	0.00	30.077 
23:35	43.9	43.9	43.9	89	40.9	0	0	---	0.00	30.077 
23:40	43.9	43.9	43.9	89	40.9	0	0	---	0.00	30.077 
23:45	43.8	43.8	43.8	89	40.8	0	0	---	0.00	30.076 
23:50	43.8	43.8	43.8	89	40.8	0	1	270	0.00	30.076 
23:55	43.8	43.8	43.8	89	40.8	0	0	---	0.00	30.076 

CoCoRaHS
IN-AL-39
A2 Web Hosting
Creative Commons License
GoDaddy
search engine by freefind advanced

loaded 2018-11-20 07:23:26 • last modified 2010-11-18 10:43:29
Privacy PolicyDisclaimer
• wx.awcolley.com is powered by PmWiki v.2002016 •
• all content (unless otherwise noted) © 2018 A W Colley